createdAt,value
2017-12-11T00:00:53.794Z,67.10
2017-12-11T00:03:22.182Z,65.30
2017-12-11T00:05:49.884Z,65.20
2017-12-11T00:08:17.508Z,63.80
2017-12-11T00:10:45.149Z,62.70
2017-12-11T00:13:12.803Z,61.80
2017-12-11T00:15:40.484Z,60.60
2017-12-11T00:18:08.361Z,60.20
2017-12-11T00:20:35.999Z,59.80
2017-12-11T00:23:04.389Z,59.70
2017-12-11T00:25:32.058Z,59.00
2017-12-11T00:27:59.685Z,59.50
2017-12-11T00:30:27.339Z,58.90
2017-12-11T00:32:54.957Z,59.00
2017-12-11T00:35:23.346Z,59.70
2017-12-11T00:37:51.001Z,59.60
2017-12-11T00:40:18.679Z,60.00
2017-12-11T00:42:46.323Z,61.10
2017-12-11T00:45:13.957Z,61.60
2017-12-11T00:47:41.576Z,61.30
2017-12-11T00:50:09.424Z,60.90
2017-12-11T00:52:37.045Z,61.80
2017-12-11T00:55:05.459Z,62.30
2017-12-11T00:57:33.092Z,62.30
2017-12-11T01:00:00.710Z,62.10
2017-12-11T01:02:28.398Z,62.30
2017-12-11T01:04:56.029Z,62.70
2017-12-11T01:07:23.684Z,62.60
2017-12-11T01:09:51.302Z,62.20
2017-12-11T01:12:18.911Z,62.40
2017-12-11T01:14:46.566Z,62.90
2017-12-11T01:17:14.975Z,63.60
2017-12-11T01:19:42.982Z,63.50
2017-12-11T01:22:10.602Z,63.20
2017-12-11T01:24:40.334Z,62.40
2017-12-11T01:27:08.774Z,62.90
2017-12-11T01:29:36.449Z,62.90
2017-12-11T01:32:04.869Z,62.80
2017-12-11T01:34:32.514Z,62.80
2017-12-11T01:37:00.166Z,63.20
2017-12-11T01:39:27.817Z,63.50
2017-12-11T01:41:55.430Z,63.80
2017-12-11T01:44:23.130Z,63.70
2017-12-11T01:46:50.746Z,63.50
2017-12-11T01:49:18.393Z,63.10
2017-12-11T01:51:46.050Z,64.20
2017-12-11T01:54:13.665Z,64.20
2017-12-11T01:56:41.328Z,64.40
2017-12-11T01:59:09.091Z,64.90
2017-12-11T02:01:36.772Z,65.80
2017-12-11T02:04:05.189Z,67.10
2017-12-11T02:06:32.814Z,67.00
2017-12-11T02:09:00.502Z,67.10
2017-12-11T02:11:28.288Z,67.10
2017-12-11T02:13:56.666Z,68.30
2017-12-11T02:16:24.324Z,68.30
2017-12-11T02:18:51.935Z,68.80
2017-12-11T02:21:20.371Z,67.00
2017-12-11T02:23:48.210Z,67.00
2017-12-11T02:26:15.830Z,66.60
2017-12-11T02:28:44.502Z,65.30
2017-12-11T02:31:12.165Z,63.20
2017-12-11T02:33:40.079Z,60.90
2017-12-11T02:36:08.574Z,58.90
2017-12-11T02:38:36.380Z,58.90
2017-12-11T02:41:04.807Z,58.10
2017-12-11T02:43:32.421Z,58.00
2017-12-11T02:46:00.081Z,58.20
2017-12-11T02:48:27.769Z,58.30
2017-12-11T02:50:55.486Z,58.10
2017-12-11T02:53:23.155Z,58.10
2017-12-11T02:55:50.766Z,58.20
2017-12-11T02:58:18.450Z,58.10
2017-12-11T03:00:46.075Z,58.60
2017-12-11T03:03:13.727Z,58.70
2017-12-11T03:05:41.723Z,57.60
2017-12-11T03:08:10.125Z,57.10
2017-12-11T03:10:37.795Z,57.60
2017-12-11T03:13:05.406Z,57.80
2017-12-11T03:15:33.053Z,58.00
2017-12-11T03:18:01.482Z,57.90
2017-12-11T03:20:29.232Z,57.80
2017-12-11T03:22:56.912Z,58.10
2017-12-11T03:25:24.535Z,57.60
2017-12-11T03:27:52.205Z,57.80
2017-12-11T03:30:19.847Z,58.10
2017-12-11T03:32:47.500Z,57.90
2017-12-11T03:35:15.193Z,57.60
2017-12-11T03:37:43.631Z,57.80
2017-12-11T03:40:11.234Z,57.80
2017-12-11T03:42:38.870Z,58.50
2017-12-11T03:45:06.491Z,58.60
2017-12-11T03:47:34.185Z,60.00
2017-12-11T03:50:01.811Z,59.30
2017-12-11T03:52:29.637Z,59.60
2017-12-11T03:54:57.310Z,59.90
2017-12-11T03:57:24.952Z,60.00
2017-12-11T03:59:52.601Z,60.70
2017-12-11T04:02:20.998Z,60.90
2017-12-11T04:04:48.737Z,60.90
2017-12-11T04:07:16.457Z,60.40
2017-12-11T04:09:44.097Z,59.80
2017-12-11T04:12:11.742Z,59.70
2017-12-11T04:14:39.422Z,60.20
2017-12-11T04:17:07.871Z,60.30
2017-12-11T04:19:35.519Z,60.20
2017-12-11T04:22:03.911Z,60.60
2017-12-11T04:24:31.597Z,60.60
2017-12-11T04:26:59.353Z,60.90
2017-12-11T04:29:26.996Z,60.70
2017-12-11T04:31:54.640Z,61.00
2017-12-11T04:34:22.245Z,61.60
2017-12-11T04:36:49.884Z,62.50
2017-12-11T04:39:17.512Z,63.20
2017-12-11T04:41:45.906Z,64.00
2017-12-11T04:44:14.408Z,64.20
2017-12-11T04:46:42.037Z,64.20
2017-12-11T04:49:09.682Z,64.00
2017-12-11T04:51:37.298Z,63.70
2017-12-11T04:54:05.727Z,64.00
2017-12-11T04:56:33.375Z,64.00
2017-12-11T04:59:00.995Z,64.10
2017-12-11T05:01:28.746Z,64.40
2017-12-11T05:03:56.365Z,64.10
2017-12-11T05:06:23.998Z,64.40
2017-12-11T05:08:57.416Z,64.20
2017-12-11T05:11:25.182Z,64.60
2017-12-11T05:13:52.837Z,64.50
2017-12-11T05:16:20.442Z,64.20
2017-12-11T05:18:48.334Z,64.00
2017-12-11T05:21:15.977Z,64.70
2017-12-11T05:23:43.613Z,64.90
2017-12-11T05:26:11.261Z,64.80
2017-12-11T05:28:38.918Z,65.30
2017-12-11T05:31:06.527Z,65.30
2017-12-11T05:33:34.182Z,65.70
2017-12-11T05:36:01.806Z,66.10
2017-12-11T05:38:29.498Z,65.70
2017-12-11T05:40:57.118Z,65.70
2017-12-11T05:43:24.753Z,65.70
2017-12-11T05:45:52.449Z,65.60
2017-12-11T05:48:20.095Z,65.40
2017-12-11T05:50:47.832Z,65.50
2017-12-11T05:53:15.471Z,66.20
2017-12-11T05:55:43.130Z,66.70
2017-12-11T05:58:10.828Z,67.20
2017-12-11T06:00:39.583Z,67.40
2017-12-11T06:03:08.235Z,67.20
2017-12-11T06:05:36.642Z,67.10
2017-12-11T06:08:04.280Z,67.00
2017-12-11T06:10:31.943Z,67.10
2017-12-11T06:12:59.710Z,67.20
2017-12-11T06:15:27.366Z,68.00
2017-12-11T06:17:55.017Z,68.50
2017-12-11T06:20:22.706Z,68.80
2017-12-11T06:22:51.133Z,69.00
2017-12-11T06:25:18.749Z,69.00
2017-12-11T06:27:46.436Z,69.00
2017-12-11T06:30:14.054Z,69.00
2017-12-11T06:32:41.775Z,69.10
2017-12-11T06:35:09.472Z,69.20
2017-12-11T06:37:37.106Z,69.70
2017-12-11T06:40:04.749Z,69.60
2017-12-11T06:42:32.367Z,70.00
2017-12-11T06:44:59.978Z,70.60
2017-12-11T06:47:28.703Z,70.90
2017-12-11T06:49:56.314Z,70.70
2017-12-11T06:52:24.565Z,70.70
2017-12-11T06:54:52.965Z,73.00
2017-12-11T06:57:20.573Z,73.00
2017-12-11T06:59:49.001Z,74.40
2017-12-11T07:02:16.619Z,74.30
2017-12-11T07:04:44.318Z,74.60
2017-12-11T07:07:11.939Z,75.30
2017-12-11T07:09:39.674Z,75.00
2017-12-11T07:12:07.331Z,74.80
2017-12-11T07:14:35.949Z,75.30
2017-12-11T07:17:03.610Z,75.70
2017-12-11T07:19:31.222Z,76.10
2017-12-11T07:21:58.834Z,76.50
2017-12-11T07:24:26.474Z,76.80
2017-12-11T07:26:54.078Z,77.20
2017-12-11T07:29:22.486Z,79.80
2017-12-11T07:31:50.100Z,79.70
2017-12-11T07:34:17.909Z,81.30
2017-12-11T07:36:45.558Z,82.20
2017-12-11T07:39:13.198Z,80.30
2017-12-11T07:41:40.843Z,80.50
2017-12-11T07:44:08.602Z,80.70
2017-12-11T07:46:36.262Z,80.90
2017-12-11T07:49:04.650Z,82.80
2017-12-11T07:51:32.258Z,82.30
2017-12-11T07:53:59.909Z,83.50
2017-12-11T07:56:27.530Z,83.90
2017-12-11T07:58:55.214Z,83.60
2017-12-11T08:01:22.853Z,83.40
2017-12-11T08:03:50.471Z,82.20
2017-12-11T08:06:18.345Z,81.20
2017-12-11T08:08:45.974Z,81.00
2017-12-11T08:11:13.634Z,81.00
2017-12-11T08:13:41.262Z,82.00
2017-12-11T08:16:08.919Z,83.00
2017-12-11T08:18:36.542Z,83.00
2017-12-11T08:21:04.192Z,82.80
2017-12-11T08:23:31.819Z,82.80
2017-12-11T08:25:59.639Z,82.40
2017-12-11T08:28:28.258Z,83.20
2017-12-11T08:30:55.893Z,83.20
2017-12-11T08:33:23.546Z,82.10
2017-12-11T08:35:51.198Z,80.60
2017-12-11T08:38:18.868Z,79.90
2017-12-11T08:40:46.511Z,79.00
2017-12-11T08:43:14.139Z,78.80
2017-12-11T08:45:41.820Z,78.30
2017-12-11T08:48:09.647Z,78.10
2017-12-11T08:50:37.300Z,77.60
2017-12-11T08:53:04.927Z,76.80
2017-12-11T08:55:32.547Z,76.00
2017-12-11T08:58:00.253Z,75.90
2017-12-11T09:00:27.887Z,75.10
2017-12-11T09:02:55.499Z,74.90
2017-12-11T09:05:23.207Z,74.80
2017-12-11T09:07:50.850Z,74.50
2017-12-11T09:10:18.692Z,73.60
2017-12-11T09:12:46.339Z,73.20
2017-12-11T09:15:13.974Z,72.80
2017-12-11T09:17:41.624Z,72.60
2017-12-11T09:20:09.362Z,72.20
2017-12-11T09:22:37.026Z,71.70
2017-12-11T09:25:04.679Z,71.30
2017-12-11T09:27:32.290Z,72.10
2017-12-11T09:29:59.943Z,71.90
2017-12-11T09:32:27.784Z,70.80
2017-12-11T09:34:55.399Z,70.70
2017-12-11T09:37:23.052Z,70.60
2017-12-11T09:39:50.668Z,70.50
2017-12-11T09:42:19.353Z,70.10
2017-12-11T09:44:46.969Z,70.10
2017-12-11T09:47:14.593Z,70.50
2017-12-11T09:49:42.238Z,70.60
2017-12-11T09:52:09.936Z,70.70
2017-12-11T09:54:38.581Z,70.10
2017-12-11T09:57:06.211Z,70.10
2017-12-11T09:59:33.831Z,70.70
2017-12-11T10:02:01.498Z,70.70
2017-12-11T10:04:29.107Z,70.90
2017-12-11T10:06:56.764Z,71.40
2017-12-11T10:09:24.386Z,70.70
2017-12-11T10:11:52.756Z,70.50
2017-12-11T10:14:20.446Z,70.40
2017-12-11T10:16:48.226Z,71.00
2017-12-11T10:19:15.907Z,71.00
2017-12-11T10:21:43.535Z,70.80
2017-12-11T10:24:11.934Z,70.90
2017-12-11T10:26:39.714Z,70.80
2017-12-11T10:29:07.362Z,71.30
2017-12-11T10:31:35.019Z,71.60
2017-12-11T10:34:02.642Z,71.00
2017-12-11T10:36:30.256Z,70.90
2017-12-11T10:38:58.045Z,71.30
2017-12-11T10:41:26.543Z,72.00
2017-12-11T10:43:54.191Z,73.40
2017-12-11T10:46:21.817Z,75.10
2017-12-11T10:48:49.437Z,77.80
2017-12-11T10:51:17.088Z,80.40
2017-12-11T10:53:44.729Z,84.20
2017-12-11T10:56:12.410Z,86.20
2017-12-11T10:58:40.038Z,88.10
2017-12-11T11:01:07.843Z,88.90
2017-12-11T11:03:35.517Z,90.70
2017-12-11T11:06:03.129Z,91.80
2017-12-11T11:08:32.362Z,91.40
2017-12-11T11:10:59.978Z,91.40
2017-12-11T11:13:27.626Z,92.20
2017-12-11T11:15:55.416Z,92.40
2017-12-11T11:18:23.038Z,92.60
2017-12-11T11:20:50.690Z,93.50
2017-12-11T11:23:18.386Z,94.50
2017-12-11T11:25:46.774Z,94.80
2017-12-11T11:28:14.420Z,94.70
2017-12-11T11:30:42.034Z,96.20
2017-12-11T11:33:10.456Z,98.30
2017-12-11T11:35:38.258Z,97.60
2017-12-11T11:38:06.637Z,97.80
2017-12-11T11:40:34.278Z,97.80
2017-12-11T11:43:02.674Z,97.80
2017-12-11T11:45:30.340Z,97.80
2017-12-11T11:47:57.966Z,98.30
2017-12-11T11:50:25.577Z,98.00
2017-12-11T11:52:53.996Z,99.00
2017-12-11T11:55:21.641Z,99.00
2017-12-11T11:57:49.426Z,98.30
2017-12-11T12:00:17.910Z,99.60
2017-12-11T12:02:45.521Z,99.60
2017-12-11T12:05:13.174Z,99.90
2017-12-11T12:07:40.781Z,99.90
2017-12-11T12:10:08.638Z,99.70
2017-12-11T12:12:36.260Z,99.90
2017-12-11T12:15:03.887Z,99.90
2017-12-11T12:17:31.564Z,99.90
2017-12-11T12:19:59.317Z,99.40
2017-12-11T12:22:27.002Z,99.30
2017-12-11T12:24:54.616Z,97.50
2017-12-11T12:27:22.260Z,97.10
2017-12-11T12:29:49.933Z,97.20
2017-12-11T12:32:17.558Z,96.80
2017-12-11T12:34:45.338Z,95.80
2017-12-11T12:37:12.973Z,96.20
2017-12-11T12:39:40.590Z,96.70
2017-12-11T12:42:08.370Z,96.40
2017-12-11T12:44:36.010Z,97.60
2017-12-11T12:47:03.666Z,98.10
2017-12-11T12:49:31.561Z,97.60
2017-12-11T12:51:59.234Z,97.90
2017-12-11T12:54:26.873Z,97.30
2017-12-11T12:56:54.514Z,97.10
2017-12-11T12:59:22.160Z,97.40
2017-12-11T13:01:49.852Z,98.30
2017-12-11T13:04:17.508Z,97.50
2017-12-11T13:06:45.237Z,97.00
2017-12-11T13:09:12.851Z,95.30
2017-12-11T13:11:40.501Z,94.80
2017-12-11T13:14:08.241Z,92.80
2017-12-11T13:16:35.882Z,93.00
2017-12-11T13:19:03.535Z,94.30
2017-12-11T13:21:31.162Z,93.50
2017-12-11T13:23:58.837Z,92.80
2017-12-11T13:26:26.448Z,93.60
2017-12-11T13:28:54.087Z,93.80
2017-12-11T13:31:22.527Z,95.40
2017-12-11T13:33:50.154Z,94.90
2017-12-11T13:36:17.910Z,95.40
2017-12-11T13:38:45.529Z,95.70
2017-12-11T13:41:13.151Z,94.70
2017-12-11T13:43:41.606Z,95.60
2017-12-11T13:46:10.004Z,95.60
2017-12-11T13:48:37.747Z,95.60
2017-12-11T13:51:05.368Z,94.80
2017-12-11T13:53:32.985Z,94.40
2017-12-11T13:56:00.631Z,95.40
2017-12-11T13:58:28.296Z,94.40
2017-12-11T14:00:55.948Z,93.80
2017-12-11T14:03:24.326Z,93.80
2017-12-11T14:05:52.802Z,93.70
2017-12-11T14:08:20.442Z,93.80
2017-12-11T14:10:48.217Z,91.70
2017-12-11T14:13:16.678Z,90.30
2017-12-11T14:15:44.503Z,90.90
2017-12-11T14:18:12.886Z,89.30
2017-12-11T14:20:40.572Z,89.30
2017-12-11T14:23:08.291Z,88.60
2017-12-11T14:25:35.939Z,89.00
2017-12-11T14:28:03.560Z,88.00
2017-12-11T14:30:31.982Z,87.50
2017-12-11T14:32:59.668Z,87.50
2017-12-11T14:35:28.467Z,87.40
2017-12-11T14:37:56.184Z,87.40
2017-12-11T14:40:24.562Z,86.40
2017-12-11T14:42:52.182Z,86.40
2017-12-11T14:45:19.859Z,85.60
2017-12-11T14:47:47.497Z,85.40
2017-12-11T14:50:15.387Z,85.20
2017-12-11T14:52:43.007Z,83.90
2017-12-11T14:55:10.619Z,85.10
2017-12-11T14:57:38.426Z,83.00
2017-12-11T15:00:06.037Z,83.00
2017-12-11T15:02:35.150Z,80.80
2017-12-11T15:05:02.761Z,80.70
2017-12-11T15:07:31.145Z,79.60
2017-12-11T15:09:58.790Z,79.60
2017-12-11T15:12:26.431Z,78.10
2017-12-11T15:14:54.075Z,77.70
2017-12-11T15:17:21.708Z,77.60
2017-12-11T15:19:50.092Z,77.30
2017-12-11T15:22:17.786Z,77.30
2017-12-11T15:24:45.451Z,77.50
2017-12-11T15:27:13.116Z,76.10
2017-12-11T15:29:41.486Z,76.70
2017-12-11T15:32:09.999Z,76.60
2017-12-11T15:34:37.798Z,75.00
2017-12-11T15:37:06.221Z,74.80
2017-12-11T15:39:33.858Z,74.80
2017-12-11T15:42:01.527Z,74.40
2017-12-11T15:44:29.158Z,74.20
2017-12-11T15:46:56.817Z,74.20
2017-12-11T15:49:24.446Z,73.30
2017-12-11T15:51:52.140Z,74.10
2017-12-11T15:54:19.825Z,73.90
2017-12-11T15:56:47.492Z,72.70
2017-12-11T15:59:15.310Z,73.00
2017-12-11T16:01:43.244Z,73.10
2017-12-11T16:04:11.411Z,72.60
2017-12-11T16:06:39.619Z,72.40
2017-12-11T16:09:07.240Z,72.80
2017-12-11T16:11:34.882Z,72.60
2017-12-11T16:14:02.493Z,72.00
2017-12-11T16:16:30.259Z,72.70
2017-12-11T16:18:57.968Z,71.70
2017-12-11T16:21:25.618Z,71.00
2017-12-11T16:23:53.281Z,70.80
2017-12-11T16:26:21.670Z,70.40
2017-12-11T16:28:49.341Z,70.00
2017-12-11T16:31:17.093Z,70.60
2017-12-11T16:33:44.738Z,70.60
2017-12-11T16:36:12.379Z,70.10
2017-12-11T16:38:39.986Z,71.10
2017-12-11T16:41:08.482Z,72.10
2017-12-11T16:43:36.095Z,72.10
2017-12-11T16:46:04.489Z,73.30
2017-12-11T16:48:32.130Z,73.40
2017-12-11T16:50:59.774Z,73.80
2017-12-11T16:53:27.416Z,74.10
2017-12-11T16:55:55.047Z,74.50
2017-12-11T16:58:23.431Z,74.30
2017-12-11T17:00:51.142Z,74.30
2017-12-11T17:03:18.735Z,74.70
2017-12-11T17:05:46.390Z,74.30
2017-12-11T17:08:14.032Z,72.80
2017-12-11T17:10:41.637Z,73.00
2017-12-11T17:13:10.062Z,72.70
2017-12-11T17:15:37.714Z,73.40
2017-12-11T17:18:06.158Z,72.50
2017-12-11T17:20:33.770Z,72.30
2017-12-11T17:23:02.206Z,71.40
2017-12-11T17:25:29.828Z,71.40
2017-12-11T17:27:57.471Z,71.50
2017-12-11T17:30:25.118Z,70.60
2017-12-11T17:32:52.744Z,71.00
2017-12-11T17:35:22.294Z,70.80
2017-12-11T17:37:49.943Z,70.20
2017-12-11T17:40:18.381Z,68.20
2017-12-11T17:42:46.058Z,68.20
2017-12-11T17:45:13.663Z,68.30
2017-12-11T17:47:42.193Z,67.70
2017-12-11T17:50:09.865Z,68.50
2017-12-11T17:52:37.474Z,68.40
2017-12-11T17:55:05.885Z,64.50
2017-12-11T17:57:33.548Z,64.50
2017-12-11T18:00:01.198Z,64.50
2017-12-11T18:02:28.863Z,63.90
2017-12-11T18:04:57.241Z,64.90
2017-12-11T18:07:25.672Z,63.80
2017-12-11T18:09:53.291Z,63.70
2017-12-11T18:12:20.920Z,63.00
2017-12-11T18:14:49.413Z,62.40
2017-12-11T18:17:17.047Z,62.50
2017-12-11T18:19:44.795Z,61.40
2017-12-11T18:22:12.421Z,62.00
2017-12-11T18:24:40.070Z,61.70
2017-12-11T18:27:07.798Z,61.30
2017-12-11T18:29:36.165Z,61.20
2017-12-11T18:32:04.313Z,61.20
2017-12-11T18:34:31.922Z,61.70
2017-12-11T18:36:59.654Z,62.50
2017-12-11T18:39:27.330Z,62.20
2017-12-11T18:41:54.978Z,61.70
2017-12-11T18:44:22.647Z,61.30
2017-12-11T18:46:50.604Z,61.20
2017-12-11T18:49:19.031Z,61.60
2017-12-11T18:51:46.821Z,61.50
2017-12-11T18:54:15.215Z,61.90
2017-12-11T18:56:42.870Z,61.80
2017-12-11T18:59:10.513Z,61.20
2017-12-11T19:01:38.330Z,61.30
2017-12-11T19:04:06.777Z,60.60
2017-12-11T19:06:34.395Z,60.60
2017-12-11T19:09:02.060Z,60.50
2017-12-11T19:11:29.703Z,61.10
2017-12-11T19:13:57.341Z,61.70
2017-12-11T19:16:25.033Z,62.10
2017-12-11T19:18:53.422Z,62.30
2017-12-11T19:21:21.082Z,62.30
2017-12-11T19:23:48.791Z,62.40
2017-12-11T19:26:17.225Z,62.80
2017-12-11T19:28:44.892Z,62.80
2017-12-11T19:31:12.510Z,62.90
2017-12-11T19:33:40.162Z,63.00
2017-12-11T19:36:07.815Z,63.30
2017-12-11T19:38:36.232Z,63.10
2017-12-11T19:41:03.887Z,63.10
2017-12-11T19:43:31.518Z,63.20
2017-12-11T19:45:59.186Z,63.20
2017-12-11T19:48:26.831Z,62.90
2017-12-11T19:50:54.443Z,63.40
2017-12-11T19:53:22.358Z,63.10
2017-12-11T19:55:49.987Z,63.30
2017-12-11T19:58:17.649Z,62.80
2017-12-11T20:00:45.292Z,63.30
2017-12-11T20:03:13.028Z,63.40
2017-12-11T20:05:40.698Z,64.60
2017-12-11T20:08:08.559Z,64.50
2017-12-11T20:10:36.218Z,64.50
2017-12-11T20:13:03.865Z,64.00
2017-12-11T20:15:31.504Z,64.20
2017-12-11T20:18:00.262Z,65.40
2017-12-11T20:20:30.478Z,64.00
2017-12-11T20:22:58.931Z,65.20
2017-12-11T20:25:26.570Z,66.30
2017-12-11T20:27:54.348Z,67.60
2017-12-11T20:30:22.663Z,68.70
2017-12-11T20:32:50.274Z,68.80
2017-12-11T20:35:17.917Z,70.20
2017-12-11T20:37:46.295Z,69.20
2017-12-11T20:40:13.930Z,69.20
2017-12-11T20:42:42.353Z,68.00
2017-12-11T20:45:09.985Z,68.00
2017-12-11T20:47:37.788Z,67.50
2017-12-11T20:50:05.410Z,66.80
2017-12-11T20:52:33.025Z,66.30
2017-12-11T20:55:01.995Z,66.00
2017-12-11T20:57:29.644Z,66.10
2017-12-11T20:59:57.342Z,66.10
2017-12-11T21:02:25.726Z,66.70
2017-12-11T21:04:53.347Z,66.60
2017-12-11T21:07:21.010Z,66.90
2017-12-11T21:09:48.698Z,66.10
2017-12-11T21:12:16.348Z,66.00
2017-12-11T21:14:43.966Z,66.10
2017-12-11T21:17:11.598Z,65.50
2017-12-11T21:19:40.819Z,64.90
2017-12-11T21:22:08.623Z,65.40
2017-12-11T21:24:37.033Z,64.60
2017-12-11T21:27:04.658Z,64.60
2017-12-11T21:29:32.282Z,64.60
2017-12-11T21:32:00.085Z,64.90
2017-12-11T21:34:27.723Z,65.20
2017-12-11T21:36:56.367Z,65.20
2017-12-11T21:39:23.992Z,65.60
2017-12-11T21:41:52.423Z,66.40
2017-12-11T21:44:20.066Z,66.40
2017-12-11T21:46:47.761Z,66.50
2017-12-11T21:49:15.986Z,66.60
2017-12-11T21:51:43.607Z,66.60
2017-12-11T21:54:11.338Z,66.50
2017-12-11T21:56:39.165Z,65.90
2017-12-11T21:59:06.798Z,66.20
2017-12-11T22:01:35.217Z,65.70
2017-12-11T22:04:02.841Z,65.70
2017-12-11T22:06:30.470Z,66.40
2017-12-11T22:08:58.163Z,66.10
2017-12-11T22:11:25.770Z,65.50
2017-12-11T22:13:53.457Z,65.50
2017-12-11T22:16:21.100Z,65.40
2017-12-11T22:18:48.791Z,66.10
2017-12-11T22:21:17.272Z,66.60
2017-12-11T22:23:44.866Z,66.40
2017-12-11T22:26:12.533Z,66.20
2017-12-11T22:28:40.168Z,65.70
2017-12-11T22:31:07.793Z,66.00
2017-12-11T22:33:35.442Z,65.60
2017-12-11T22:36:03.087Z,65.70
2017-12-11T22:38:30.731Z,65.30
2017-12-11T22:40:58.393Z,65.90
2017-12-11T22:43:26.004Z,66.40
2017-12-11T22:45:53.673Z,66.40
2017-12-11T22:48:21.284Z,66.40
2017-12-11T22:50:48.944Z,66.80
2017-12-11T22:53:17.135Z,67.00
2017-12-11T22:55:44.748Z,67.10
2017-12-11T22:58:12.393Z,67.50
2017-12-11T23:00:40.002Z,67.00
2017-12-11T23:03:07.707Z,66.30
2017-12-11T23:05:35.482Z,66.10
2017-12-11T23:08:03.094Z,65.80
2017-12-11T23:10:30.755Z,65.90
2017-12-11T23:12:58.600Z,65.80
2017-12-11T23:15:26.242Z,65.90
2017-12-11T23:17:53.876Z,65.50
2017-12-11T23:20:21.510Z,66.10
2017-12-11T23:22:49.186Z,66.30
2017-12-11T23:25:16.810Z,66.10
2017-12-11T23:27:44.466Z,64.80
2017-12-11T23:30:12.086Z,64.60
2017-12-11T23:32:40.601Z,65.40
2017-12-11T23:35:08.890Z,65.40
2017-12-11T23:37:36.505Z,65.90
2017-12-11T23:40:04.156Z,65.60
2017-12-11T23:42:31.779Z,65.60
2017-12-11T23:44:59.377Z,65.50
2017-12-11T23:47:27.083Z,66.00
2017-12-11T23:49:54.698Z,67.00
2017-12-11T23:52:23.352Z,66.40
2017-12-11T23:54:51.079Z,66.10
2017-12-11T23:57:18.793Z,66.10
2017-12-11T23:59:46.455Z,66.40
